Time;durP1;ratioP1;P1;durP2;ratioP2;P2;SDS_P1;SDS_P2;PMS_P1;PMS_P2;Temp;Humidity;BMP_temperature;BMP_pressure;BME280_temperature;BME280_humidity;BME280_pressure;Samples;Min_cycle;Max_cycle;Signal;HPM_P1;HPM_P2
2022/11/07 00:00:21;;;;;;;3.28;1.45;;;21.00;48.70;;;;;;4972233;28;20350;-43
2022/11/07 00:02:52;;;;;;;3.42;1.23;;;21.00;48.70;;;;;;4972534;28;20237;-44
2022/11/07 00:05:23;;;;;;;4.43;1.50;;;21.00;48.80;;;;;;4972567;28;20701;-44
2022/11/07 00:07:54;;;;;;;3.30;1.60;;;21.10;48.70;;;;;;4972038;28;20681;-43
2022/11/07 00:10:26;;;;;;;5.30;1.75;;;21.10;48.70;;;;;;4971464;28;20215;-44
2022/11/07 00:12:58;;;;;;;3.42;1.30;;;21.10;48.60;;;;;;4976669;28;20670;-47
2022/11/07 00:15:28;;;;;;;3.92;1.50;;;21.20;48.60;;;;;;4978253;28;20680;-44
2022/11/07 00:18:00;;;;;;;4.28;1.67;;;21.20;48.60;;;;;;4983240;28;20213;-45
2022/11/07 00:20:31;;;;;;;4.80;1.92;;;21.20;48.60;;;;;;4983147;28;20748;-44
2022/11/07 00:23:01;;;;;;;3.38;1.40;;;21.30;48.70;;;;;;4988720;28;20234;-43
2022/11/07 00:25:34;;;;;;;4.35;1.48;;;21.30;48.60;;;;;;4971692;28;20693;-43
2022/11/07 00:28:05;;;;;;;4.18;1.60;;;21.30;48.60;;;;;;4971377;28;20218;-45
2022/11/07 00:30:36;;;;;;;3.25;1.60;;;21.40;48.60;;;;;;4968413;28;20214;-44
2022/11/07 00:33:07;;;;;;;2.60;1.35;;;21.40;48.60;;;;;;4971517;28;20194;-44
2022/11/07 00:35:41;;;;;;;3.05;1.63;;;21.40;48.60;;;;;;4979200;28;20205;-43
2022/11/07 00:38:12;;;;;;;3.88;1.65;;;21.50;48.60;;;;;;4980641;28;20190;-46
2022/11/07 00:40:45;;;;;;;3.72;1.70;;;21.50;48.60;;;;;;4971541;28;20690;-43
2022/11/07 00:43:15;;;;;;;2.88;1.35;;;21.50;48.50;;;;;;4972562;28;20198;-43
2022/11/07 00:45:46;;;;;;;2.75;1.48;;;21.60;48.50;;;;;;4971175;28;20658;-43
2022/11/07 00:48:17;;;;;;;1.75;1.25;;;21.60;48.40;;;;;;4968725;28;20214;-44
2022/11/07 00:50:48;;;;;;;4.00;1.30;;;21.60;48.30;;;;;;4980632;28;20209;-44
2022/11/07 00:53:18;;;;;;;3.58;1.40;;;21.60;48.30;;;;;;4975426;28;20650;-43
2022/11/07 00:55:51;;;;;;;2.58;1.42;;;21.70;48.40;;;;;;4983573;28;20197;-45
2022/11/07 00:58:22;;;;;;;3.20;1.40;;;21.70;48.40;;;;;;4990791;28;20190;-44
2022/11/07 01:00:53;;;;;;;3.00;1.40;;;21.70;48.40;;;;;;4974931;28;20622;-43
2022/11/07 01:06:10;;;;;;;3.15;1.50;;;21.80;48.40;;;;;;4975528;28;20193;-44
2022/11/07 01:08:41;;;;;;;3.33;1.50;;;21.80;48.30;;;;;;4974740;28;20194;-47
2022/11/07 01:11:14;;;;;;;3.97;1.48;;;21.90;48.30;;;;;;4975724;28;20202;-48
2022/11/07 01:13:45;;;;;;;4.93;1.92;;;21.90;48.30;;;;;;4961633;28;20194;-44
2022/11/07 01:16:16;;;;;;;4.63;1.40;;;21.90;48.30;;;;;;4974143;28;20194;-46
2022/11/07 01:18:46;;;;;;;2.50;1.23;;;21.90;48.20;;;;;;4974340;28;20218;-44
2022/11/07 01:21:17;;;;;;;2.80;1.70;;;22.00;48.30;;;;;;4984514;28;20206;-45
2022/11/07 01:23:48;;;;;;;3.50;1.50;;;22.00;48.20;;;;;;4988926;28;20281;-46
2022/11/07 01:26:20;;;;;;;3.55;1.40;;;22.00;48.80;;;;;;4974642;28;20202;-43
2022/11/07 01:28:51;;;;;;;2.58;1.50;;;22.10;48.20;;;;;;4974432;28;20229;-44
2022/11/07 01:31:23;;;;;;;2.35;1.30;;;22.10;48.30;;;;;;4974116;28;20212;-48
2022/11/07 01:33:53;;;;;;;3.20;1.50;;;22.10;48.20;;;;;;4973983;28;20190;-47
2022/11/07 01:36:24;;;;;;;2.70;1.35;;;22.20;48.20;;;;;;4983122;28;20558;-47
2022/11/07 01:38:55;;;;;;;3.70;1.40;;;22.20;48.10;;;;;;4976673;28;20222;-46
2022/11/07 01:41:30;;;;;;;3.63;1.58;;;22.20;48.10;;;;;;4973781;28;20210;-48
2022/11/07 01:44:03;;;;;;;3.72;1.45;;;22.20;48.00;;;;;;4974525;28;20201;-44
2022/11/07 01:46:36;;;;;;;3.95;1.88;;;22.30;48.00;;;;;;4974401;28;20202;-44
2022/11/07 01:49:12;;;;;;;3.35;1.30;;;22.30;48.00;;;;;;4974310;28;20708;-48
2022/11/07 01:51:46;;;;;;;3.50;1.50;;;22.40;47.90;;;;;;4981820;28;20204;-44
2022/11/07 01:54:19;;;;;;;4.45;1.48;;;22.40;47.90;;;;;;4982697;28;20646;-43
2022/11/07 01:56:53;;;;;;;3.83;1.50;;;22.40;47.90;;;;;;4975383;28;20206;-43
2022/11/07 01:59:28;;;;;;;2.22;1.20;;;22.40;47.80;;;;;;4973638;28;20221;-47
2022/11/07 02:01:59;;;;;;;3.55;1.63;;;22.40;47.70;;;;;;4972340;28;20229;-45
2022/11/07 02:04:31;;;;;;;5.72;1.95;;;22.50;47.70;;;;;;4963399;28;20205;-44
2022/11/07 02:07:07;;;;;;;3.97;1.50;;;22.50;47.70;;;;;;4973691;28;20544;-43
2022/11/07 02:09:38;;;;;;;2.78;1.30;;;22.50;47.70;;;;;;4982127;28;20217;-46
2022/11/07 02:12:11;;;;;;;2.78;1.40;;;22.60;47.70;;;;;;4986097;28;20605;-44
2022/11/07 02:14:43;;;;;;;4.30;1.25;;;22.60;47.60;;;;;;4974102;28;20262;-44
2022/11/07 02:17:15;;;;;;;6.35;1.50;;;22.60;47.50;;;;;;4974661;28;20202;-47
2022/11/07 02:19:48;;;;;;;2.67;1.50;;;22.70;47.40;;;;;;4973792;28;20698;-44
2022/11/07 02:22:27;;;;;;;3.22;1.58;;;22.70;47.40;;;;;;4973596;28;20694;-45
2022/11/07 02:25:02;;;;;;;3.38;1.48;;;22.70;47.40;;;;;;4973296;28;20194;-43
2022/11/07 02:27:35;;;;;;;3.97;1.58;;;22.80;47.40;;;;;;4973208;28;20650;-44
2022/11/07 02:30:08;;;;;;;4.43;1.50;;;22.80;47.30;;;;;;4970058;28;20224;-44
2022/11/07 02:32:39;;;;;;;3.85;1.98;;;22.80;47.30;;;;;;4984632;28;20223;-44
2022/11/07 02:35:25;;;;;;;4.03;1.70;;;22.90;47.30;;;;;;4979832;28;20277;-45
2022/11/07 02:37:56;;;;;;;3.42;1.40;;;22.90;47.40;;;;;;4973235;28;20225;-43
2022/11/07 02:40:30;;;;;;;3.22;1.48;;;22.90;47.20;;;;;;4959622;28;20223;-43
2022/11/07 02:43:01;;;;;;;5.15;1.48;;;22.90;47.20;;;;;;4953918;28;20226;-44
2022/11/07 02:45:34;;;;;;;4.13;1.80;;;22.90;47.10;;;;;;4969582;28;20206;-44
2022/11/07 02:48:05;;;;;;;2.92;1.40;;;23.00;47.00;;;;;;4972819;28;20564;-43
2022/11/07 02:50:36;;;;;;;3.90;1.58;;;23.00;46.90;;;;;;4976959;28;20217;-45
2022/11/07 02:53:07;;;;;;;3.83;1.60;;;23.10;47.00;;;;;;4992773;28;20201;-45
2022/11/07 02:55:40;;;;;;;3.67;1.60;;;23.10;46.90;;;;;;4974712;28;20669;-44
2022/11/07 02:58:11;;;;;;;2.75;1.15;;;23.10;46.90;;;;;;4975720;28;20198;-43
2022/11/07 03:00:41;;;;;;;2.85;1.40;;;23.20;46.90;;;;;;4973441;28;20618;-44
2022/11/07 03:03:12;;;;;;;1.98;1.20;;;23.20;46.80;;;;;;4973170;28;20222;-44
2022/11/07 03:05:43;;;;;;;2.58;1.15;;;23.20;46.80;;;;;;4967875;28;20201;-43
2022/11/07 03:08:13;;;;;;;4.30;1.50;;;23.30;46.80;;;;;;4973683;28;20204;-45
2022/11/07 03:10:46;;;;;;;2.88;1.40;;;23.30;46.80;;;;;;4977050;28;20711;-45
2022/11/07 03:13:17;;;;;;;3.05;1.58;;;23.30;46.70;;;;;;4972224;28;20205;-47
2022/11/07 03:15:47;;;;;;;3.55;1.55;;;23.30;46.70;;;;;;4972756;28;20198;-43
2022/11/07 03:18:18;;;;;;;2.85;1.30;;;23.40;46.70;;;;;;4986156;28;20201;-44
2022/11/07 03:20:49;;;;;;;3.58;1.40;;;23.40;46.60;;;;;;4976463;28;20472;-44
2022/11/07 03:23:20;;;;;;;3.13;1.30;;;23.40;46.50;;;;;;4972318;28;20233;-47
2022/11/07 03:25:53;;;;;;;3.80;1.60;;;23.50;46.50;;;;;;4972450;28;20681;-47
2022/11/07 03:28:23;;;;;;;3.10;1.40;;;23.50;46.50;;;;;;4972026;28;20213;-44
2022/11/07 03:30:54;;;;;;;3.17;1.27;;;23.50;46.30;;;;;;4972226;28;20202;-43
2022/11/07 03:33:25;;;;;;;3.33;1.70;;;23.60;46.40;;;;;;4972439;28;20204;-43
2022/11/07 03:35:56;;;;;;;2.85;1.30;;;23.60;46.30;;;;;;4973509;28;20654;-45
2022/11/07 03:38:26;;;;;;;4.45;1.55;;;23.60;46.20;;;;;;4985884;28;20201;-46
2022/11/07 03:40:59;;;;;;;2.78;1.42;;;23.70;46.30;;;;;;4975801;28;20650;-44
2022/11/07 03:43:30;;;;;;;3.42;1.33;;;23.70;46.40;;;;;;4972407;28;20358;-48
2022/11/07 03:46:01;;;;;;;4.85;1.63;;;23.70;46.30;;;;;;5016068;23;20229;-58
2022/11/07 03:48:32;;;;;;;2.85;1.40;;;23.80;46.30;;;;;;5011113;28;20201;-52
2022/11/07 03:51:02;;;;;;;2.65;1.55;;;23.80;46.40;;;;;;5010590;28;20208;-54
2022/11/07 03:53:33;;;;;;;4.15;1.63;;;23.80;46.30;;;;;;5010812;28;20208;-55
2022/11/07 03:56:09;;;;;;;3.53;1.50;;;23.80;46.20;;;;;;5000836;28;20198;-49
2022/11/07 03:58:40;;;;;;;2.60;1.30;;;23.90;46.20;;;;;;4990984;28;20197;-53
2022/11/07 04:01:12;;;;;;;3.45;1.40;;;23.90;46.20;;;;;;4987600;28;20212;-55
2022/11/07 04:03:42;;;;;;;3.58;1.50;;;23.90;46.20;;;;;;4990636;28;20217;-53
2022/11/07 04:06:13;;;;;;;3.00;1.30;;;24.00;46.20;;;;;;4990613;28;20203;-56
2022/11/07 04:08:44;;;;;;;2.83;1.38;;;24.00;46.10;;;;;;4990511;28;20236;-56
2022/11/07 04:19:33;;;;;;;2.67;1.17;;;24.10;45.70;;;;;;4991492;28;20215;-56
2022/11/07 04:22:04;;;;;;;3.72;1.55;;;24.10;45.60;;;;;;4991703;28;20221;-58
2022/11/07 04:24:35;;;;;;;3.40;1.30;;;24.10;45.60;;;;;;4995276;28;20204;-60
2022/11/07 04:29:56;;;;;;;4.30;1.70;;;24.10;45.60;;;;;;4993520;28;20224;-59
2022/11/07 04:32:27;;;;;;;4.10;1.55;;;24.20;45.70;;;;;;4994411;28;20764;-56
2022/11/07 04:34:58;;;;;;;3.05;1.27;;;24.20;45.60;;;;;;4994540;28;20193;-53
2022/11/07 04:37:29;;;;;;;3.13;1.58;;;24.20;45.70;;;;;;4995519;28;20573;-55
2022/11/07 04:39:59;;;;;;;3.63;1.50;;;24.20;45.70;;;;;;4995076;28;20221;-57
2022/11/07 04:42:32;;;;;;;6.63;1.75;;;24.20;45.60;;;;;;4994713;28;20232;-54
2022/11/07 04:45:03;;;;;;;3.15;1.35;;;24.30;45.60;;;;;;5014954;23;20221;-47
2022/11/07 04:47:33;;;;;;;4.03;1.50;;;24.30;45.60;;;;;;5014740;28;20674;-47
2022/11/07 04:50:04;;;;;;;5.93;1.98;;;24.30;45.50;;;;;;5014902;28;20727;-50
2022/11/07 04:52:35;;;;;;;4.43;1.83;;;24.30;45.40;;;;;;5014904;28;20570;-44
2022/11/07 04:55:06;;;;;;;5.28;1.90;;;24.30;45.30;;;;;;5009555;28;20204;-44
2022/11/07 04:57:39;;;;;;;3.15;1.80;;;24.30;45.30;;;;;;5015702;28;20193;-43
2022/11/07 05:00:11;;;;;;;6.07;1.70;;;24.30;45.30;;;;;;5014326;28;20259;-43
2022/11/07 05:02:41;;;;;;;5.55;1.70;;;24.30;45.30;;;;;;5013949;28;20221;-43
2022/11/07 05:05:13;;;;;;;6.68;2.00;;;24.40;45.20;;;;;;5014058;28;20193;-44
2022/11/07 05:07:43;;;;;;;5.55;1.80;;;24.40;45.20;;;;;;5014224;28;20215;-43
2022/11/07 05:10:20;;;;;;;3.20;1.50;;;24.30;45.20;;;;;;5014173;28;20216;-43
2022/11/07 05:12:53;;;;;;;3.00;1.42;;;24.40;45.30;;;;;;5013364;28;20204;-43
2022/11/07 05:15:24;;;;;;;2.58;1.50;;;24.40;45.30;;;;;;5013679;28;20272;-43
2022/11/07 05:17:55;;;;;;;3.70;1.58;;;24.40;45.30;;;;;;5013827;28;20656;-43
2022/11/07 05:20:33;;;;;;;4.18;1.83;;;24.50;45.20;;;;;;5014202;28;20205;-44
2022/11/07 05:23:17;;;;;;;3.28;1.63;;;24.50;45.20;;;;;;5014039;28;20216;-43
2022/11/07 05:25:48;;;;;;;4.47;2.00;;;24.50;45.20;;;;;;5012984;28;20205;-44
2022/11/07 05:28:22;;;;;;;5.53;1.80;;;24.50;45.10;;;;;;5013874;28;20656;-46
2022/11/07 05:30:52;;;;;;;3.63;1.65;;;24.50;45.10;;;;;;5013502;28;20284;-48
2022/11/07 05:33:23;;;;;;;3.15;1.50;;;24.50;45.10;;;;;;5014105;28;20199;-44
2022/11/07 05:35:54;;;;;;;3.28;1.30;;;24.50;45.10;;;;;;5012883;28;20197;-42
2022/11/07 05:38:25;;;;;;;4.70;1.70;;;24.50;45.10;;;;;;5014187;28;20215;-44
2022/11/07 05:40:56;;;;;;;5.80;1.98;;;24.50;45.10;;;;;;5013166;28;20288;-43
2022/11/07 05:43:29;;;;;;;4.65;1.92;;;24.50;45.10;;;;;;5013288;28;20692;-43
2022/11/07 05:46:02;;;;;;;3.53;1.60;;;24.50;45.10;;;;;;5013932;28;20211;-43
2022/11/07 05:48:33;;;;;;;3.83;1.65;;;24.50;45.10;;;;;;5013141;28;20200;-44
2022/11/07 05:51:03;;;;;;;5.25;1.90;;;24.50;45.00;;;;;;5017118;28;20189;-42
2022/11/07 05:53:34;;;;;;;5.43;2.15;;;24.50;45.00;;;;;;5012695;28;20460;-43
2022/11/07 05:56:05;;;;;;;4.35;1.63;;;24.50;45.10;;;;;;5012739;28;20193;-44
2022/11/07 05:58:37;;;;;;;4.03;1.73;;;24.50;44.90;;;;;;5012419;28;20205;-49
2022/11/07 06:01:09;;;;;;;4.43;1.85;;;24.50;44.90;;;;;;5013187;28;20676;-43
2022/11/07 06:03:40;;;;;;;3.38;1.77;;;24.50;44.90;;;;;;5013373;28;20727;-46
2022/11/07 06:06:11;;;;;;;4.78;1.95;;;24.50;45.00;;;;;;5013247;28;20200;-46
2022/11/07 06:08:41;;;;;;;6.18;2.05;;;24.50;45.00;;;;;;5012515;28;20205;-45
2022/11/07 06:11:13;;;;;;;6.50;2.10;;;24.50;45.00;;;;;;5012815;28;20196;-43
2022/11/07 06:13:45;;;;;;;6.07;2.33;;;24.50;45.00;;;;;;4993554;28;20193;-44
2022/11/07 06:16:16;;;;;;;3.75;1.60;;;24.50;44.90;;;;;;5003248;28;20564;-43
2022/11/07 06:18:47;;;;;;;3.70;1.60;;;24.50;44.90;;;;;;5012561;28;20221;-44
2022/11/07 06:21:18;;;;;;;4.38;1.80;;;24.50;44.90;;;;;;5012996;28;20552;-43
2022/11/07 06:23:49;;;;;;;3.25;1.80;;;24.50;44.90;;;;;;5013419;28;20231;-43
2022/11/07 06:26:19;;;;;;;3.38;1.80;;;24.50;44.90;;;;;;5012065;28;20193;-43
2022/11/07 06:28:52;;;;;;;4.78;2.00;;;24.50;44.90;;;;;;5010051;28;20692;-43
2022/11/07 06:31:23;;;;;;;2.85;1.50;;;24.50;44.90;;;;;;5012667;28;20288;-44
2022/11/07 06:33:54;;;;;;;3.13;1.45;;;24.50;44.90;;;;;;5012546;28;20200;-43
2022/11/07 06:36:25;;;;;;;3.95;1.92;;;24.50;44.90;;;;;;5012584;28;20727;-46
2022/11/07 06:38:56;;;;;;;4.93;1.90;;;24.40;44.80;;;;;;5011952;28;20220;-42
2022/11/07 06:41:27;;;;;;;4.68;1.67;;;24.40;44.80;;;;;;5012108;28;20208;-44
2022/11/07 06:44:05;;;;;;;4.50;1.95;;;24.40;44.80;;;;;;5011852;28;20569;-44
2022/11/07 06:46:36;;;;;;;5.15;1.95;;;24.30;44.80;;;;;;5011081;28;20192;-43
2022/11/07 06:49:07;;;;;;;5.32;1.73;;;24.30;44.80;;;;;;5012379;28;20221;-43
2022/11/07 06:51:37;;;;;;;3.70;1.77;;;24.30;44.90;;;;;;5012291;28;20207;-43
2022/11/07 06:54:08;;;;;;;3.88;1.60;;;24.30;44.90;;;;;;5012469;28;20197;-43
2022/11/07 06:56:39;;;;;;;2.83;1.75;;;24.30;44.90;;;;;;5012118;28;20208;-43
2022/11/07 06:59:11;;;;;;;4.35;1.80;;;24.30;44.90;;;;;;5011988;28;20224;-43
2022/11/07 07:01:42;;;;;;;4.07;2.03;;;24.20;44.90;;;;;;5012319;28;20193;-44
2022/11/07 07:04:13;;;;;;;4.25;1.80;;;24.20;44.90;;;;;;5012194;28;20224;-44
2022/11/07 07:06:44;;;;;;;2.47;1.50;;;24.20;45.00;;;;;;5012113;28;20193;-43
2022/11/07 07:09:15;;;;;;;4.03;1.80;;;24.20;45.00;;;;;;5012038;28;20763;-43
2022/11/07 07:11:47;;;;;;;3.72;1.55;;;24.20;45.00;;;;;;5011709;28;20201;-43
2022/11/07 07:14:19;;;;;;;3.72;1.50;;;24.10;45.00;;;;;;5012584;28;20219;-44
2022/11/07 07:16:50;;;;;;;3.22;1.52;;;24.10;45.00;;;;;;5012284;28;20197;-44
2022/11/07 07:19:21;;;;;;;4.07;1.73;;;24.10;45.00;;;;;;5011990;28;20213;-44
2022/11/07 07:21:51;;;;;;;2.33;1.30;;;24.00;45.00;;;;;;5012114;28;20657;-43
2022/11/07 07:24:22;;;;;;;2.25;1.60;;;24.00;45.00;;;;;;5011833;28;20225;-43
2022/11/07 07:26:53;;;;;;;2.33;1.55;;;24.00;45.10;;;;;;5011850;28;20280;-47
2022/11/07 07:29:26;;;;;;;2.47;1.48;;;24.00;45.10;;;;;;5011834;28;20217;-43
2022/11/07 07:31:56;;;;;;;2.28;1.30;;;24.00;45.10;;;;;;5007538;28;20601;-43
2022/11/07 07:34:27;;;;;;;2.85;1.50;;;23.90;45.10;;;;;;5011086;28;20200;-43
2022/11/07 07:36:58;;;;;;;4.05;1.40;;;23.90;45.10;;;;;;5011240;28;20563;-42
2022/11/07 07:39:29;;;;;;;3.40;1.40;;;23.90;45.20;;;;;;5025030;28;20212;-43
2022/11/07 07:42:00;;;;;;;2.40;1.30;;;23.90;45.20;;;;;;5026868;28;20231;-44
2022/11/07 07:44:33;;;;;;;2.58;1.27;;;23.80;45.20;;;;;;5011688;28;20224;-45
2022/11/07 07:47:04;;;;;;;3.63;1.80;;;23.80;45.20;;;;;;5010772;28;20679;-44
2022/11/07 07:49:34;;;;;;;5.05;1.70;;;23.80;45.20;;;;;;5010759;28;20622;-43
2022/11/07 07:52:05;;;;;;;3.45;1.48;;;23.80;45.20;;;;;;5011206;28;20193;-45
2022/11/07 07:54:36;;;;;;;3.03;1.48;;;23.70;45.20;;;;;;5011494;28;20671;-43
2022/11/07 07:57:07;;;;;;;4.05;1.67;;;23.70;45.20;;;;;;5010342;28;20719;-42
2022/11/07 07:59:40;;;;;;;2.35;1.40;;;23.70;45.30;;;;;;5010516;28;20216;-46
2022/11/07 08:02:13;;;;;;;2.45;1.30;;;23.60;45.20;;;;;;5011139;28;20189;-48
2022/11/07 08:04:44;;;;;;;3.30;1.55;;;23.60;45.30;;;;;;5010716;28;20232;-48
2022/11/07 08:07:15;;;;;;;3.95;1.50;;;23.60;45.30;;;;;;5010407;28;20649;-45
2022/11/07 08:09:46;;;;;;;6.72;2.28;;;23.60;45.90;;;;;;5010349;28;20220;-53
2022/11/07 08:12:16;;;;;;;11.20;2.35;;;23.50;45.40;;;;;;5009492;28;20193;-48
2022/11/07 08:14:49;;;;;;;12.20;2.85;;;23.40;45.40;;;;;;5011164;28;20209;-52
2022/11/07 08:17:20;;;;;;;7.22;2.40;;;23.30;45.70;;;;;;5011218;28;20200;-51
2022/11/07 08:19:51;;;;;;;9.75;2.35;;;23.00;46.00;;;;;;5010837;28;20217;-49
2022/11/07 08:22:21;;;;;;;7.18;2.40;;;22.70;46.20;;;;;;5011122;28;20641;-44
2022/11/07 08:24:54;;;;;;;7.78;2.47;;;22.50;46.60;;;;;;5011266;28;20332;-42
2022/11/07 08:27:25;;;;;;;11.63;2.47;;;22.30;46.90;;;;;;5014249;28;20200;-48
2022/11/07 08:29:58;;;;;;;9.82;2.67;;;22.20;47.10;;;;;;5009851;28;20217;-45
2022/11/07 08:32:30;;;;;;;6.05;2.13;;;22.10;47.30;;;;;;5009564;28;20185;-43
2022/11/07 08:35:01;;;;;;;10.88;3.00;;;22.10;47.40;;;;;;5010421;28;20204;-45
2022/11/07 08:37:31;;;;;;;6.20;2.25;;;22.00;47.40;;;;;;5010778;28;20570;-44
2022/11/07 08:40:02;;;;;;;7.60;2.00;;;22.00;47.50;;;;;;5011238;28;20229;-45
2022/11/07 08:42:33;;;;;;;7.32;2.22;;;22.00;47.50;;;;;;5010855;28;20559;-44
2022/11/07 08:45:06;;;;;;;7.32;2.30;;;22.00;47.50;;;;;;5011003;28;20706;-45
2022/11/07 08:47:37;;;;;;;6.13;1.98;;;22.00;47.50;;;;;;5010184;28;20197;-45
2022/11/07 08:50:08;;;;;;;5.70;1.80;;;22.00;47.50;;;;;;4998884;28;20225;-44
2022/11/07 08:52:39;;;;;;;7.43;2.17;;;22.00;47.50;;;;;;5010326;28;20558;-49
2022/11/07 08:55:11;;;;;;;6.18;2.00;;;22.00;47.50;;;;;;5011127;28;20204;-44
2022/11/07 08:57:41;;;;;;;5.43;2.00;;;22.00;47.40;;;;;;5010350;28;20216;-44
2022/11/07 09:00:15;;;;;;;6.03;1.90;;;22.00;47.40;;;;;;5010436;28;20228;-43
2022/11/07 09:02:46;;;;;;;4.85;1.67;;;22.00;47.40;;;;;;5009975;28;20660;-45
2022/11/07 09:05:17;;;;;;;7.45;2.08;;;22.00;47.40;;;;;;5009988;28;20583;-44
2022/11/07 09:07:47;;;;;;;4.55;1.80;;;22.00;47.40;;;;;;5010127;28;20586;-44
2022/11/07 09:10:18;;;;;;;5.55;2.03;;;22.00;47.30;;;;;;5011418;28;20228;-45
2022/11/07 09:12:50;;;;;;;5.25;1.92;;;22.00;47.30;;;;;;5013831;28;20660;-45
2022/11/07 09:15:23;;;;;;;3.80;1.80;;;22.00;47.30;;;;;;5014158;28;20205;-44
2022/11/07 09:17:54;;;;;;;5.78;2.20;;;22.00;47.30;;;;;;5012842;28;20572;-48
2022/11/07 09:20:25;;;;;;;4.75;1.80;;;22.00;47.20;;;;;;5014051;28;20219;-44
2022/11/07 09:22:59;;;;;;;4.63;1.65;;;22.00;47.20;;;;;;5013943;28;20567;-47
2022/11/07 09:25:30;;;;;;;5.05;1.77;;;21.90;47.10;;;;;;5013539;28;20643;-44
2022/11/07 09:28:05;;;;;;;5.00;1.88;;;21.90;47.10;;;;;;5019450;28;20193;-44
2022/11/07 09:30:37;;;;;;;4.13;1.70;;;22.00;47.10;;;;;;5013338;28;20568;-46
2022/11/07 09:33:08;;;;;;;5.00;2.00;;;22.00;47.70;;;;;;5013517;28;20565;-43
2022/11/07 09:35:39;;;;;;;3.13;1.90;;;21.90;47.10;;;;;;5013202;28;20207;-47
2022/11/07 09:38:10;;;;;;;4.28;1.75;;;21.90;47.10;;;;;;5013100;28;20204;-44
2022/11/07 09:40:53;;;;;;;4.82;1.75;;;21.90;47.70;;;;;;5013387;28;20228;-44
2022/11/07 09:43:49;;;;;;;4.28;1.90;;;21.90;47.10;;;;;;5013150;28;20185;-45
2022/11/07 09:46:32;;;;;;;2.30;1.33;;;21.90;47.00;;;;;;5013344;28;20209;-45
2022/11/07 09:49:11;;;;;;;3.08;1.55;;;21.90;47.00;;;;;;5012575;28;20221;-43
2022/11/07 09:51:44;;;;;;;3.88;1.70;;;21.90;47.00;;;;;;5012839;28;20561;-46
2022/11/07 09:54:17;;;;;;;3.05;1.73;;;21.80;46.90;;;;;;5013225;28;20228;-44
2022/11/07 09:56:48;;;;;;;2.42;1.52;;;21.80;46.90;;;;;;5013329;28;20584;-44
2022/11/07 09:59:25;;;;;;;3.78;1.60;;;21.80;46.90;;;;;;5011173;28;20212;-46
2022/11/07 10:01:58;;;;;;;3.58;1.73;;;21.80;46.90;;;;;;5010827;28;20203;-46
2022/11/07 10:04:29;;;;;;;2.42;1.40;;;21.80;46.90;;;;;;5010982;28;20221;-43
2022/11/07 10:07:05;;;;;;;4.72;1.50;;;21.80;46.90;;;;;;5011058;28;20293;-43
2022/11/07 10:09:47;;;;;;;3.25;1.52;;;21.80;47.00;;;;;;5010701;28;20231;-44
2022/11/07 10:12:38;;;;;;;3.20;1.67;;;21.80;47.00;;;;;;5010688;28;20660;-43
2022/11/07 10:15:20;;;;;;;3.03;1.63;;;21.70;47.00;;;;;;5004461;28;20208;-44
2022/11/07 10:18:02;;;;;;;4.45;1.70;;;21.70;47.00;;;;;;5010890;28;20564;-44
2022/11/07 10:20:44;;;;;;;4.68;2.00;;;21.70;47.60;;;;;;5010580;28;20213;-44
2022/11/07 10:23:31;;;;;;;2.40;1.55;;;21.70;47.00;;;;;;5005529;28;20200;-44
2022/11/07 10:26:06;;;;;;;4.07;1.63;;;21.70;47.10;;;;;;5003492;28;20251;-43
2022/11/07 10:28:48;;;;;;;4.07;1.80;;;21.70;47.10;;;;;;5011068;28;20196;-44
2022/11/07 10:31:19;;;;;;;3.47;1.75;;;21.70;47.10;;;;;;5012073;28;20196;-47
2022/11/07 10:33:56;;;;;;;3.38;1.60;;;21.70;47.10;;;;;;5017006;28;20197;-44
2022/11/07 10:36:29;;;;;;;2.85;1.30;;;21.60;47.10;;;;;;5010389;28;20200;-45
2022/11/07 10:39:00;;;;;;;3.53;1.90;;;21.60;47.10;;;;;;5009530;28;20221;-42
2022/11/07 10:41:33;;;;;;;4.10;1.50;;;21.60;47.10;;;;;;5010530;28;20228;-44
2022/11/07 10:44:06;;;;;;;2.15;1.20;;;21.60;47.20;;;;;;5010567;28;20229;-44
2022/11/07 10:46:42;;;;;;;3.22;1.42;;;21.60;47.20;;;;;;5022602;23;20336;-58
2022/11/07 10:49:25;;;;;;;4.47;1.65;;;21.50;47.20;;;;;;5004191;28;20221;-55
2022/11/07 10:52:07;;;;;;;3.63;1.52;;;21.50;47.20;;;;;;5001917;28;20582;-54
2022/11/07 10:54:39;;;;;;;3.08;1.80;;;21.50;47.20;;;;;;5004243;28;20572;-57
2022/11/07 10:57:14;;;;;;;3.70;1.60;;;21.40;47.20;;;;;;5010245;28;20287;-57
2022/11/07 10:59:57;;;;;;;2.25;1.38;;;21.50;47.30;;;;;;5004022;28;20223;-60
2022/11/07 11:02:33;;;;;;;2.47;1.38;;;21.50;47.40;;;;;;5002395;28;20212;-57
2022/11/07 11:05:18;;;;;;;3.78;1.52;;;21.40;47.30;;;;;;5002832;28;20216;-54
2022/11/07 11:07:48;;;;;;;3.58;1.48;;;21.40;47.30;;;;;;5009692;28;20202;-52
2022/11/07 11:10:23;;;;;;;3.05;1.55;;;21.40;47.30;;;;;;5005120;28;20224;-50
2022/11/07 11:12:57;;;;;;;2.25;1.30;;;21.40;47.30;;;;;;5009640;28;20829;-56
2022/11/07 11:15:29;;;;;;;3.88;1.40;;;21.30;47.30;;;;;;5006148;28;20201;-52
2022/11/07 11:18:02;;;;;;;2.38;1.27;;;21.30;47.40;;;;;;5009614;28;20291;-54
2022/11/07 11:20:44;;;;;;;3.03;1.52;;;21.30;47.40;;;;;;5007168;28;20224;-55
2022/11/07 11:23:22;;;;;;;2.15;1.25;;;21.30;47.40;;;;;;5006756;28;20207;-51
2022/11/07 11:25:54;;;;;;;1.73;1.13;;;21.20;47.40;;;;;;5008817;28;20239;-54
2022/11/07 11:28:32;;;;;;;2.88;1.58;;;21.20;47.40;;;;;;5008217;28;20201;-54
2022/11/07 11:31:05;;;;;;;3.33;1.50;;;21.20;47.50;;;;;;5001388;28;20205;-57
2022/11/07 11:33:46;;;;;;;2.83;1.40;;;21.20;47.60;;;;;;5005278;28;20573;-52
2022/11/07 11:36:23;;;;;;;2.67;1.50;;;21.20;47.60;;;;;;5008771;28;20231;-60
2022/11/07 11:38:55;;;;;;;3.65;1.60;;;21.20;47.60;;;;;;5006026;28;20307;-56
2022/11/07 11:41:34;;;;;;;2.28;1.27;;;21.20;47.60;;;;;;5010012;28;20204;-55
2022/11/07 11:47:06;;;;;;;3.40;1.55;;;21.10;47.60;;;;;;4988046;28;20400;-44
2022/11/07 11:49:41;;;;;;;2.95;1.35;;;21.10;47.60;;;;;;4989788;28;20221;-45
2022/11/07 11:52:18;;;;;;;3.13;1.40;;;21.00;47.60;;;;;;4990522;28;20201;-43
2022/11/07 11:54:49;;;;;;;3.40;1.27;;;21.00;47.70;;;;;;4990287;28;20205;-45
2022/11/07 11:57:24;;;;;;;2.78;1.40;;;21.00;47.70;;;;;;4990965;28;20208;-44
2022/11/07 12:00:11;;;;;;;2.17;1.30;;;21.00;47.70;;;;;;4992045;28;20221;-43
2022/11/07 12:03:16;;;;;;;2.92;1.45;;;21.00;47.80;;;;;;4992425;28;20193;-46
2022/11/07 12:06:08;;;;;;;3.15;1.45;;;21.00;47.80;;;;;;4992159;28;20225;-47
2022/11/07 12:09:15;;;;;;;3.58;1.30;;;20.90;47.70;;;;;;4991724;28;20209;-44
2022/11/07 12:11:57;;;;;;;2.63;1.40;;;21.00;47.80;;;;;;4991960;28;20669;-45
2022/11/07 12:14:42;;;;;;;3.17;1.63;;;20.90;47.70;;;;;;4991455;28;20209;-44
2022/11/07 12:17:20;;;;;;;2.83;1.35;;;20.90;47.70;;;;;;4991937;28;20212;-44
2022/11/07 12:19:58;;;;;;;2.78;1.30;;;20.90;47.70;;;;;;4991564;28;20228;-47
2022/11/07 12:22:41;;;;;;;1.92;1.10;;;20.90;47.70;;;;;;4991137;28;20196;-43
2022/11/07 12:25:21;;;;;;;4.75;1.77;;;20.90;47.80;;;;;;4991392;28;20205;-43
2022/11/07 12:27:59;;;;;;;3.03;1.30;;;20.80;47.80;;;;;;4991862;28;20664;-43
2022/11/07 12:30:39;;;;;;;2.72;1.13;;;20.80;47.80;;;;;;4991938;28;20221;-43
2022/11/07 12:33:22;;;;;;;2.28;1.20;;;20.70;47.80;;;;;;4992316;28;20209;-43
2022/11/07 12:35:55;;;;;;;2.40;1.00;;;20.70;47.80;;;;;;4991534;28;20606;-43
2022/11/07 12:38:57;;;;;;;1.58;1.00;;;20.70;47.80;;;;;;4991676;28;20204;-43
2022/11/07 12:41:39;;;;;;;1.77;1.00;;;20.70;47.90;;;;;;4991784;28;20201;-43
2022/11/07 12:47:02;;;;;;;3.22;1.40;;;20.70;47.80;;;;;;5013769;28;20235;-58
2022/11/07 12:49:48;;;;;;;3.88;1.50;;;20.70;47.80;;;;;;5014474;28;20228;-57
2022/11/07 12:52:43;;;;;;;2.20;1.40;;;20.60;47.80;;;;;;5014127;28;20200;-59
2022/11/07 12:55:24;;;;;;;2.20;1.20;;;20.60;47.80;;;;;;5014203;28;20568;-58
2022/11/07 12:57:58;;;;;;;2.08;1.23;;;20.60;47.80;;;;;;5014348;28;20263;-58
2022/11/07 13:00:30;;;;;;;2.10;1.17;;;20.60;47.80;;;;;;5014522;28;20220;-58
2022/11/07 13:03:19;;;;;;;2.35;1.25;;;20.60;47.80;;;;;;5014786;28;20201;-57
2022/11/07 13:06:04;;;;;;;1.92;1.30;;;20.50;47.80;;;;;;5014898;28;20232;-56
2022/11/07 13:08:41;;;;;;;2.80;1.27;;;20.50;47.80;;;;;;5014397;28;20211;-58
2022/11/07 13:11:20;;;;;;;3.33;1.25;;;20.50;47.90;;;;;;5013939;28;20204;-59
2022/11/07 13:14:09;;;;;;;2.25;1.40;;;20.50;47.90;;;;;;5014267;28;20234;-56
2022/11/07 13:16:50;;;;;;;1.58;1.08;;;20.50;47.90;;;;;;5013942;28;20197;-57
2022/11/07 13:19:30;;;;;;;1.60;1.13;;;20.50;47.90;;;;;;5014364;28;20221;-61
2022/11/07 13:22:06;;;;;;;1.80;1.15;;;20.50;47.90;;;;;;5014898;28;20203;-60
2022/11/07 13:24:50;;;;;;;3.35;1.27;;;20.50;47.80;;;;;;5014181;28;20212;-60
2022/11/07 13:27:25;;;;;;;3.00;1.33;;;20.40;47.80;;;;;;5013989;28;20215;-60
2022/11/07 13:29:58;;;;;;;1.38;0.98;;;20.40;47.80;;;;;;5014150;28;20707;-60
2022/11/07 13:32:39;;;;;;;2.58;1.25;;;20.40;47.80;;;;;;5014263;28;20212;-61
2022/11/07 13:35:11;;;;;;;2.30;1.10;;;20.30;47.80;;;;;;5014236;28;20197;-59
2022/11/07 13:37:46;;;;;;;2.08;1.10;;;20.30;47.80;;;;;;5013748;28;20193;-52